sensor_id;sensor_type;location;lat;lon;timestamp;P1;durP1;ratioP1;P2;durP2;ratioP2
5811;SDS011;2932;52.400;9.558;2023-08-06T00:00:34;6.38;;;5.60;;
5811;SDS011;2932;52.400;9.558;2023-08-06T00:03:00;7.22;;;6.03;;
5811;SDS011;2932;52.400;9.558;2023-08-06T00:05:25;6.75;;;6.05;;
5811;SDS011;2932;52.400;9.558;2023-08-06T00:07:50;7.68;;;6.65;;
5811;SDS011;2932;52.400;9.558;2023-08-06T00:10:16;7.22;;;6.53;;
5811;SDS011;2932;52.400;9.558;2023-08-06T00:12:42;8.73;;;5.97;;
5811;SDS011;2932;52.400;9.558;2023-08-06T00:15:08;8.07;;;6.50;;
5811;SDS011;2932;52.400;9.558;2023-08-06T00:17:34;7.97;;;7.15;;
5811;SDS011;2932;52.400;9.558;2023-08-06T00:19:59;8.98;;;7.15;;
5811;SDS011;2932;52.400;9.558;2023-08-06T00:22:30;8.07;;;7.22;;
5811;SDS011;2932;52.400;9.558;2023-08-06T00:24:58;7.60;;;6.78;;
5811;SDS011;2932;52.400;9.558;2023-08-06T00:27:24;9.95;;;7.88;;
5811;SDS011;2932;52.400;9.558;2023-08-06T00:29:50;7.53;;;6.80;;
5811;SDS011;2932;52.400;9.558;2023-08-06T00:32:15;8.98;;;7.18;;
5811;SDS011;2932;52.400;9.558;2023-08-06T00:34:40;10.05;;;7.55;;
5811;SDS011;2932;52.400;9.558;2023-08-06T00:37:06;8.90;;;7.28;;
5811;SDS011;2932;52.400;9.558;2023-08-06T00:39:31;9.88;;;7.38;;
5811;SDS011;2932;52.400;9.558;2023-08-06T00:41:56;10.13;;;7.72;;
5811;SDS011;2932;52.400;9.558;2023-08-06T00:44:23;9.80;;;7.80;;
5811;SDS011;2932;52.400;9.558;2023-08-06T00:46:48;8.30;;;7.40;;
5811;SDS011;2932;52.400;9.558;2023-08-06T00:49:14;6.43;;;5.65;;
5811;SDS011;2932;52.400;9.558;2023-08-06T00:51:39;7.60;;;5.78;;
5811;SDS011;2932;52.400;9.558;2023-08-06T00:54:05;7.75;;;5.75;;
5811;SDS011;2932;52.400;9.558;2023-08-06T00:56:31;7.47;;;6.07;;
5811;SDS011;2932;52.400;9.558;2023-08-06T00:58:59;5.97;;;5.22;;
5811;SDS011;2932;52.400;9.558;2023-08-06T01:01:24;7.00;;;5.13;;
5811;SDS011;2932;52.400;9.558;2023-08-06T01:03:50;6.57;;;5.20;;
5811;SDS011;2932;52.400;9.558;2023-08-06T01:06:16;7.72;;;4.95;;
5811;SDS011;2932;52.400;9.558;2023-08-06T01:08:50;5.93;;;4.13;;
5811;SDS011;2932;52.400;9.558;2023-08-06T01:11:31;4.63;;;4.03;;
5811;SDS011;2932;52.400;9.558;2023-08-06T01:14:30;5.28;;;3.60;;
5811;SDS011;2932;52.400;9.558;2023-08-06T01:17:04;8.02;;;4.32;;
5811;SDS011;2932;52.400;9.558;2023-08-06T01:19:30;4.53;;;4.10;;
5811;SDS011;2932;52.400;9.558;2023-08-06T01:21:55;4.75;;;4.35;;
5811;SDS011;2932;52.400;9.558;2023-08-06T01:24:20;5.55;;;4.13;;
5811;SDS011;2932;52.400;9.558;2023-08-06T01:26:48;4.13;;;3.72;;
5811;SDS011;2932;52.400;9.558;2023-08-06T01:29:23;6.03;;;4.30;;
5811;SDS011;2932;52.400;9.558;2023-08-06T01:31:56;4.35;;;3.95;;
5811;SDS011;2932;52.400;9.558;2023-08-06T01:34:24;6.50;;;4.05;;
5811;SDS011;2932;52.400;9.558;2023-08-06T01:36:52;5.03;;;3.80;;
5811;SDS011;2932;52.400;9.558;2023-08-06T01:39:18;5.93;;;4.38;;
5811;SDS011;2932;52.400;9.558;2023-08-06T01:41:46;4.18;;;3.83;;
5811;SDS011;2932;52.400;9.558;2023-08-06T01:44:12;5.47;;;3.90;;
5811;SDS011;2932;52.400;9.558;2023-08-06T01:46:37;3.85;;;3.45;;
5811;SDS011;2932;52.400;9.558;2023-08-06T01:49:03;4.20;;;3.38;;
5811;SDS011;2932;52.400;9.558;2023-08-06T01:51:28;5.00;;;3.60;;
5811;SDS011;2932;52.400;9.558;2023-08-06T01:53:53;7.10;;;4.47;;
5811;SDS011;2932;52.400;9.558;2023-08-06T01:56:19;5.28;;;3.72;;
5811;SDS011;2932;52.400;9.558;2023-08-06T01:58:44;5.28;;;3.67;;
5811;SDS011;2932;52.400;9.558;2023-08-06T02:01:09;5.13;;;3.75;;
5811;SDS011;2932;52.400;9.558;2023-08-06T02:03:34;5.35;;;4.30;;
5811;SDS011;2932;52.400;9.558;2023-08-06T02:06:00;5.70;;;4.38;;
5811;SDS011;2932;52.400;9.558;2023-08-06T02:08:26;5.68;;;4.10;;
5811;SDS011;2932;52.400;9.558;2023-08-06T02:10:52;6.88;;;4.97;;
5811;SDS011;2932;52.400;9.558;2023-08-06T02:13:18;6.03;;;4.25;;
5811;SDS011;2932;52.400;9.558;2023-08-06T02:15:44;5.30;;;4.80;;
5811;SDS011;2932;52.400;9.558;2023-08-06T02:18:12;4.45;;;4.03;;
5811;SDS011;2932;52.400;9.558;2023-08-06T02:20:37;6.80;;;4.93;;
5811;SDS011;2932;52.400;9.558;2023-08-06T02:23:03;4.70;;;4.20;;
5811;SDS011;2932;52.400;9.558;2023-08-06T02:25:28;5.90;;;5.13;;
5811;SDS011;2932;52.400;9.558;2023-08-06T02:27:53;5.72;;;5.18;;
5811;SDS011;2932;52.400;9.558;2023-08-06T02:30:19;6.45;;;5.13;;
5811;SDS011;2932;52.400;9.558;2023-08-06T02:32:44;7.13;;;5.60;;
5811;SDS011;2932;52.400;9.558;2023-08-06T02:35:09;5.68;;;4.65;;
5811;SDS011;2932;52.400;9.558;2023-08-06T02:37:35;9.82;;;4.70;;
5811;SDS011;2932;52.400;9.558;2023-08-06T02:40:00;7.47;;;5.60;;
5811;SDS011;2932;52.400;9.558;2023-08-06T02:42:26;8.40;;;6.40;;
5811;SDS011;2932;52.400;9.558;2023-08-06T02:44:52;7.25;;;6.03;;
5811;SDS011;2932;52.400;9.558;2023-08-06T02:47:20;7.35;;;6.07;;
5811;SDS011;2932;52.400;9.558;2023-08-06T02:49:45;6.32;;;5.40;;
5811;SDS011;2932;52.400;9.558;2023-08-06T02:52:11;6.72;;;5.47;;
5811;SDS011;2932;52.400;9.558;2023-08-06T02:54:36;6.90;;;5.93;;
5811;SDS011;2932;52.400;9.558;2023-08-06T02:57:01;7.60;;;5.47;;
5811;SDS011;2932;52.400;9.558;2023-08-06T02:59:27;7.10;;;6.10;;
5811;SDS011;2932;52.400;9.558;2023-08-06T03:01:52;6.35;;;5.53;;
5811;SDS011;2932;52.400;9.558;2023-08-06T03:04:17;6.68;;;5.97;;
5811;SDS011;2932;52.400;9.558;2023-08-06T03:06:43;6.15;;;5.53;;
5811;SDS011;2932;52.400;9.558;2023-08-06T03:09:08;7.78;;;5.57;;
5811;SDS011;2932;52.400;9.558;2023-08-06T03:11:34;9.68;;;5.80;;
5811;SDS011;2932;52.400;9.558;2023-08-06T03:13:59;9.45;;;6.47;;
5811;SDS011;2932;52.400;9.558;2023-08-06T03:16:24;8.05;;;6.15;;
5811;SDS011;2932;52.400;9.558;2023-08-06T03:18:49;9.35;;;6.20;;
5811;SDS011;2932;52.400;9.558;2023-08-06T03:21:15;8.82;;;5.80;;
5811;SDS011;2932;52.400;9.558;2023-08-06T03:23:40;9.02;;;6.13;;
5811;SDS011;2932;52.400;9.558;2023-08-06T03:26:05;8.35;;;6.18;;
5811;SDS011;2932;52.400;9.558;2023-08-06T03:28:31;7.88;;;6.05;;
5811;SDS011;2932;52.400;9.558;2023-08-06T03:31:02;6.63;;;5.80;;
5811;SDS011;2932;52.400;9.558;2023-08-06T03:33:29;8.43;;;6.15;;
5811;SDS011;2932;52.400;9.558;2023-08-06T03:35:54;6.53;;;5.82;;
5811;SDS011;2932;52.400;9.558;2023-08-06T03:38:20;7.07;;;6.38;;
5811;SDS011;2932;52.400;9.558;2023-08-06T03:40:48;6.25;;;5.65;;
5811;SDS011;2932;52.400;9.558;2023-08-06T03:43:14;7.22;;;5.47;;
5811;SDS011;2932;52.400;9.558;2023-08-06T03:45:40;8.02;;;6.07;;
5811;SDS011;2932;52.400;9.558;2023-08-06T03:48:06;6.55;;;5.43;;
5811;SDS011;2932;52.400;9.558;2023-08-06T03:50:34;7.63;;;5.65;;
5811;SDS011;2932;52.400;9.558;2023-08-06T03:53:00;8.02;;;6.10;;
5811;SDS011;2932;52.400;9.558;2023-08-06T03:55:25;7.25;;;5.60;;
5811;SDS011;2932;52.400;9.558;2023-08-06T03:57:51;6.32;;;5.30;;
5811;SDS011;2932;52.400;9.558;2023-08-06T04:00:19;10.25;;;6.07;;
5811;SDS011;2932;52.400;9.558;2023-08-06T04:02:44;7.18;;;6.20;;
5811;SDS011;2932;52.400;9.558;2023-08-06T04:05:10;9.23;;;6.03;;
5811;SDS011;2932;52.400;9.558;2023-08-06T04:07:35;8.07;;;6.00;;
5811;SDS011;2932;52.400;9.558;2023-08-06T04:10:02;9.40;;;5.95;;
5811;SDS011;2932;52.400;9.558;2023-08-06T04:12:28;7.15;;;5.93;;
5811;SDS011;2932;52.400;9.558;2023-08-06T04:14:54;6.80;;;6.10;;
5811;SDS011;2932;52.400;9.558;2023-08-06T04:17:20;6.78;;;5.82;;
5811;SDS011;2932;52.400;9.558;2023-08-06T04:19:55;7.65;;;5.85;;
5811;SDS011;2932;52.400;9.558;2023-08-06T04:22:24;7.47;;;6.35;;
5811;SDS011;2932;52.400;9.558;2023-08-06T04:24:49;6.93;;;6.05;;
5811;SDS011;2932;52.400;9.558;2023-08-06T04:27:15;8.45;;;6.60;;
5811;SDS011;2932;52.400;9.558;2023-08-06T04:29:41;8.93;;;6.03;;
5811;SDS011;2932;52.400;9.558;2023-08-06T04:32:08;9.55;;;5.88;;
5811;SDS011;2932;52.400;9.558;2023-08-06T04:34:34;8.07;;;6.30;;
5811;SDS011;2932;52.400;9.558;2023-08-06T04:37:01;9.80;;;5.72;;
5811;SDS011;2932;52.400;9.558;2023-08-06T04:39:27;7.05;;;6.25;;
5811;SDS011;2932;52.400;9.558;2023-08-06T04:41:52;6.57;;;5.80;;
5811;SDS011;2932;52.400;9.558;2023-08-06T04:44:18;8.10;;;6.20;;
5811;SDS011;2932;52.400;9.558;2023-08-06T04:46:43;7.47;;;6.22;;
5811;SDS011;2932;52.400;9.558;2023-08-06T04:49:09;7.18;;;5.88;;
5811;SDS011;2932;52.400;9.558;2023-08-06T04:51:34;8.18;;;7.10;;
5811;SDS011;2932;52.400;9.558;2023-08-06T04:54:00;7.35;;;6.50;;
5811;SDS011;2932;52.400;9.558;2023-08-06T04:56:25;7.22;;;6.43;;
5811;SDS011;2932;52.400;9.558;2023-08-06T04:58:51;9.23;;;6.60;;
5811;SDS011;2932;52.400;9.558;2023-08-06T05:01:16;10.45;;;7.32;;
5811;SDS011;2932;52.400;9.558;2023-08-06T05:03:41;9.07;;;6.70;;
5811;SDS011;2932;52.400;9.558;2023-08-06T05:06:07;8.57;;;6.88;;
5811;SDS011;2932;52.400;9.558;2023-08-06T05:08:32;7.97;;;6.50;;
5811;SDS011;2932;52.400;9.558;2023-08-06T05:10:58;7.93;;;6.60;;
5811;SDS011;2932;52.400;9.558;2023-08-06T05:13:23;8.77;;;6.28;;
5811;SDS011;2932;52.400;9.558;2023-08-06T05:15:49;8.20;;;5.60;;
5811;SDS011;2932;52.400;9.558;2023-08-06T05:18:14;7.95;;;6.47;;
5811;SDS011;2932;52.400;9.558;2023-08-06T05:20:40;8.48;;;6.75;;
5811;SDS011;2932;52.400;9.558;2023-08-06T05:23:07;7.88;;;6.32;;
5811;SDS011;2932;52.400;9.558;2023-08-06T05:25:34;6.90;;;6.20;;
5811;SDS011;2932;52.400;9.558;2023-08-06T05:28:00;8.48;;;5.78;;
5811;SDS011;2932;52.400;9.558;2023-08-06T05:30:26;7.43;;;6.50;;
5811;SDS011;2932;52.400;9.558;2023-08-06T05:32:52;8.68;;;5.85;;
5811;SDS011;2932;52.400;9.558;2023-08-06T05:35:17;10.30;;;7.88;;
5811;SDS011;2932;52.400;9.558;2023-08-06T05:37:42;7.43;;;6.47;;
5811;SDS011;2932;52.400;9.558;2023-08-06T05:40:08;7.53;;;6.00;;
5811;SDS011;2932;52.400;9.558;2023-08-06T05:42:33;8.27;;;5.10;;
5811;SDS011;2932;52.400;9.558;2023-08-06T05:44:58;7.35;;;6.05;;
5811;SDS011;2932;52.400;9.558;2023-08-06T05:47:24;7.00;;;5.30;;
5811;SDS011;2932;52.400;9.558;2023-08-06T05:49:49;5.82;;;5.22;;
5811;SDS011;2932;52.400;9.558;2023-08-06T05:52:14;7.45;;;5.05;;
5811;SDS011;2932;52.400;9.558;2023-08-06T05:54:40;5.72;;;4.72;;
5811;SDS011;2932;52.400;9.558;2023-08-06T05:57:05;4.28;;;3.58;;
5811;SDS011;2932;52.400;9.558;2023-08-06T05:59:31;6.75;;;4.25;;
5811;SDS011;2932;52.400;9.558;2023-08-06T06:01:56;5.63;;;3.85;;
5811;SDS011;2932;52.400;9.558;2023-08-06T06:04:22;5.43;;;4.40;;
5811;SDS011;2932;52.400;9.558;2023-08-06T06:06:47;7.00;;;4.28;;
5811;SDS011;2932;52.400;9.558;2023-08-06T06:09:12;5.50;;;3.90;;
5811;SDS011;2932;52.400;9.558;2023-08-06T06:11:38;4.28;;;3.63;;
5811;SDS011;2932;52.400;9.558;2023-08-06T06:14:03;7.25;;;3.22;;
5811;SDS011;2932;52.400;9.558;2023-08-06T06:16:28;6.28;;;4.00;;
5811;SDS011;2932;52.400;9.558;2023-08-06T06:18:54;3.75;;;3.28;;
5811;SDS011;2932;52.400;9.558;2023-08-06T06:21:19;4.57;;;3.60;;
5811;SDS011;2932;52.400;9.558;2023-08-06T06:23:45;5.95;;;3.72;;
5811;SDS011;2932;52.400;9.558;2023-08-06T06:26:10;5.05;;;3.60;;
5811;SDS011;2932;52.400;9.558;2023-08-06T06:28:36;3.97;;;3.10;;
5811;SDS011;2932;52.400;9.558;2023-08-06T06:31:01;4.65;;;3.00;;
5811;SDS011;2932;52.400;9.558;2023-08-06T06:33:27;5.95;;;2.95;;
5811;SDS011;2932;52.400;9.558;2023-08-06T06:35:53;3.85;;;2.50;;
5811;SDS011;2932;52.400;9.558;2023-08-06T06:38:18;3.42;;;2.63;;
5811;SDS011;2932;52.400;9.558;2023-08-06T06:40:43;2.58;;;2.33;;
5811;SDS011;2932;52.400;9.558;2023-08-06T06:43:09;5.07;;;2.60;;
5811;SDS011;2932;52.400;9.558;2023-08-06T06:45:34;2.53;;;2.33;;
5811;SDS011;2932;52.400;9.558;2023-08-06T06:47:59;2.50;;;2.10;;
5811;SDS011;2932;52.400;9.558;2023-08-06T06:50:25;2.63;;;2.25;;
5811;SDS011;2932;52.400;9.558;2023-08-06T06:52:51;2.22;;;1.92;;
5811;SDS011;2932;52.400;9.558;2023-08-06T06:55:16;2.40;;;2.15;;
5811;SDS011;2932;52.400;9.558;2023-08-06T06:57:42;4.93;;;1.98;;
5811;SDS011;2932;52.400;9.558;2023-08-06T07:00:07;2.53;;;2.10;;
5811;SDS011;2932;52.400;9.558;2023-08-06T07:02:33;2.97;;;2.38;;
5811;SDS011;2932;52.400;9.558;2023-08-06T07:04:58;3.85;;;2.25;;
5811;SDS011;2932;52.400;9.558;2023-08-06T07:07:23;2.05;;;1.90;;
5811;SDS011;2932;52.400;9.558;2023-08-06T07:09:48;2.72;;;1.90;;
5811;SDS011;2932;52.400;9.558;2023-08-06T07:12:14;1.70;;;1.42;;
5811;SDS011;2932;52.400;9.558;2023-08-06T07:14:39;2.35;;;1.90;;
5811;SDS011;2932;52.400;9.558;2023-08-06T07:17:05;1.75;;;1.65;;
5811;SDS011;2932;52.400;9.558;2023-08-06T07:19:30;3.00;;;2.00;;
5811;SDS011;2932;52.400;9.558;2023-08-06T07:21:56;1.73;;;1.60;;
5811;SDS011;2932;52.400;9.558;2023-08-06T07:24:21;2.50;;;1.55;;
5811;SDS011;2932;52.400;9.558;2023-08-06T07:26:46;3.40;;;1.80;;
5811;SDS011;2932;52.400;9.558;2023-08-06T07:29:12;5.30;;;2.28;;
5811;SDS011;2932;52.400;9.558;2023-08-06T07:31:37;2.50;;;2.30;;
5811;SDS011;2932;52.400;9.558;2023-08-06T07:34:02;2.08;;;1.80;;
5811;SDS011;2932;52.400;9.558;2023-08-06T07:36:28;1.98;;;1.67;;
5811;SDS011;2932;52.400;9.558;2023-08-06T07:38:53;1.77;;;1.67;;
5811;SDS011;2932;52.400;9.558;2023-08-06T07:41:24;1.40;;;1.30;;
5811;SDS011;2932;52.400;9.558;2023-08-06T07:43:50;2.42;;;1.42;;
5811;SDS011;2932;52.400;9.558;2023-08-06T07:46:15;1.70;;;1.60;;
5811;SDS011;2932;52.400;9.558;2023-08-06T07:48:40;2.22;;;2.03;;
5811;SDS011;2932;52.400;9.558;2023-08-06T07:51:06;3.58;;;1.80;;
5811;SDS011;2932;52.400;9.558;2023-08-06T07:53:31;2.38;;;1.80;;
5811;SDS011;2932;52.400;9.558;2023-08-06T07:55:57;1.92;;;1.67;;
5811;SDS011;2932;52.400;9.558;2023-08-06T07:58:23;2.03;;;1.90;;
5811;SDS011;2932;52.400;9.558;2023-08-06T08:00:49;2.15;;;1.95;;
5811;SDS011;2932;52.400;9.558;2023-08-06T08:03:15;2.50;;;1.73;;
5811;SDS011;2932;52.400;9.558;2023-08-06T08:05:44;1.70;;;1.60;;
5811;SDS011;2932;52.400;9.558;2023-08-06T08:08:09;3.63;;;1.50;;
5811;SDS011;2932;52.400;9.558;2023-08-06T08:10:35;3.08;;;1.52;;
5811;SDS011;2932;52.400;9.558;2023-08-06T08:13:02;1.95;;;1.60;;
5811;SDS011;2932;52.400;9.558;2023-08-06T08:15:28;1.40;;;1.30;;
5811;SDS011;2932;52.400;9.558;2023-08-06T08:17:55;1.73;;;1.60;;
5811;SDS011;2932;52.400;9.558;2023-08-06T08:20:20;1.58;;;1.48;;
5811;SDS011;2932;52.400;9.558;2023-08-06T08:22:46;2.05;;;1.20;;
5811;SDS011;2932;52.400;9.558;2023-08-06T08:25:11;1.55;;;1.45;;
5811;SDS011;2932;52.400;9.558;2023-08-06T08:27:37;2.08;;;1.38;;
5811;SDS011;2932;52.400;9.558;2023-08-06T08:30:03;1.98;;;1.50;;
5811;SDS011;2932;52.400;9.558;2023-08-06T08:32:28;2.00;;;1.55;;
5811;SDS011;2932;52.400;9.558;2023-08-06T08:34:53;1.63;;;1.45;;
5811;SDS011;2932;52.400;9.558;2023-08-06T08:37:19;2.60;;;1.60;;
5811;SDS011;2932;52.400;9.558;2023-08-06T08:39:44;1.70;;;1.55;;
5811;SDS011;2932;52.400;9.558;2023-08-06T08:42:09;9.43;;;2.17;;
5811;SDS011;2932;52.400;9.558;2023-08-06T08:44:35;1.55;;;1.45;;
5811;SDS011;2932;52.400;9.558;2023-08-06T08:47:04;1.63;;;1.52;;
5811;SDS011;2932;52.400;9.558;2023-08-06T08:49:31;1.80;;;1.50;;
5811;SDS011;2932;52.400;9.558;2023-08-06T08:51:57;1.58;;;1.48;;
5811;SDS011;2932;52.400;9.558;2023-08-06T08:54:26;1.52;;;1.42;;
5811;SDS011;2932;52.400;9.558;2023-08-06T08:56:53;1.10;;;1.10;;
5811;SDS011;2932;52.400;9.558;2023-08-06T08:59:20;1.83;;;1.45;;
5811;SDS011;2932;52.400;9.558;2023-08-06T09:01:45;1.52;;;1.40;;
5811;SDS011;2932;52.400;9.558;2023-08-06T09:04:15;1.50;;;1.27;;
5811;SDS011;2932;52.400;9.558;2023-08-06T09:06:41;2.15;;;1.65;;
5811;SDS011;2932;52.400;9.558;2023-08-06T09:09:08;1.63;;;1.42;;
5811;SDS011;2932;52.400;9.558;2023-08-06T09:11:39;1.77;;;1.67;;
5811;SDS011;2932;52.400;9.558;2023-08-06T09:14:08;3.47;;;1.42;;
5811;SDS011;2932;52.400;9.558;2023-08-06T09:16:36;1.60;;;1.50;;
5811;SDS011;2932;52.400;9.558;2023-08-06T09:19:09;1.92;;;1.80;;
5811;SDS011;2932;52.400;9.558;2023-08-06T09:21:39;2.08;;;1.80;;
5811;SDS011;2932;52.400;9.558;2023-08-06T09:24:08;2.25;;;1.85;;
5811;SDS011;2932;52.400;9.558;2023-08-06T09:26:36;1.70;;;1.60;;
5811;SDS011;2932;52.400;9.558;2023-08-06T09:29:03;2.85;;;1.73;;
5811;SDS011;2932;52.400;9.558;2023-08-06T09:34:21;1.75;;;1.65;;
5811;SDS011;2932;52.400;9.558;2023-08-06T09:39:15;1.52;;;1.42;;
5811;SDS011;2932;52.400;9.558;2023-08-06T09:41:41;2.08;;;1.70;;
5811;SDS011;2932;52.400;9.558;2023-08-06T09:44:22;1.67;;;1.55;;
5811;SDS011;2932;52.400;9.558;2023-08-06T09:46:59;3.28;;;1.73;;
5811;SDS011;2932;52.400;9.558;2023-08-06T09:51:52;3.03;;;1.83;;
5811;SDS011;2932;52.400;9.558;2023-08-06T09:54:20;2.50;;;2.30;;
5811;SDS011;2932;52.400;9.558;2023-08-06T09:56:47;2.50;;;2.30;;
5811;SDS011;2932;52.400;9.558;2023-08-06T09:59:13;1.88;;;1.77;;
5811;SDS011;2932;52.400;9.558;2023-08-06T10:01:39;2.67;;;1.90;;
5811;SDS011;2932;52.400;9.558;2023-08-06T10:04:04;3.65;;;1.85;;
5811;SDS011;2932;52.400;9.558;2023-08-06T10:06:33;3.40;;;2.45;;
5811;SDS011;2932;52.400;9.558;2023-08-06T10:09:00;2.10;;;1.90;;
5811;SDS011;2932;52.400;9.558;2023-08-06T10:11:26;2.38;;;2.17;;
5811;SDS011;2932;52.400;9.558;2023-08-06T10:13:55;3.63;;;2.40;;
5811;SDS011;2932;52.400;9.558;2023-08-06T10:16:25;4.85;;;2.70;;
5811;SDS011;2932;52.400;9.558;2023-08-06T10:18:51;2.67;;;2.47;;
5811;SDS011;2932;52.400;9.558;2023-08-06T10:21:17;3.10;;;2.42;;
5811;SDS011;2932;52.400;9.558;2023-08-06T10:23:43;3.70;;;2.53;;
5811;SDS011;2932;52.400;9.558;2023-08-06T10:26:08;2.50;;;2.30;;
5811;SDS011;2932;52.400;9.558;2023-08-06T10:28:37;3.38;;;2.65;;
5811;SDS011;2932;52.400;9.558;2023-08-06T10:31:03;1.80;;;1.70;;
5811;SDS011;2932;52.400;9.558;2023-08-06T10:33:45;1.90;;;1.80;;
5811;SDS011;2932;52.400;9.558;2023-08-06T10:36:14;1.63;;;1.50;;
5811;SDS011;2932;52.400;9.558;2023-08-06T10:38:44;2.10;;;1.90;;
5811;SDS011;2932;52.400;9.558;2023-08-06T10:41:22;1.67;;;1.58;;
5811;SDS011;2932;52.400;9.558;2023-08-06T10:43:49;3.58;;;1.73;;
5811;SDS011;2932;52.400;9.558;2023-08-06T10:46:27;3.35;;;2.40;;
5811;SDS011;2932;52.400;9.558;2023-08-06T10:48:53;1.95;;;1.85;;
5811;SDS011;2932;52.400;9.558;2023-08-06T10:51:19;1.77;;;1.58;;
5811;SDS011;2932;52.400;9.558;2023-08-06T10:53:45;2.95;;;1.60;;
5811;SDS011;2932;52.400;9.558;2023-08-06T10:56:21;1.60;;;1.45;;
5811;SDS011;2932;52.400;9.558;2023-08-06T10:58:48;2.35;;;1.65;;
5811;SDS011;2932;52.400;9.558;2023-08-06T11:01:14;3.28;;;1.60;;
5811;SDS011;2932;52.400;9.558;2023-08-06T11:03:40;1.42;;;1.30;;
5811;SDS011;2932;52.400;9.558;2023-08-06T11:06:07;1.95;;;1.63;;
5811;SDS011;2932;52.400;9.558;2023-08-06T11:08:33;2.13;;;1.40;;
5811;SDS011;2932;52.400;9.558;2023-08-06T11:13:42;1.60;;;1.50;;
5811;SDS011;2932;52.400;9.558;2023-08-06T11:16:08;2.55;;;1.40;;
5811;SDS011;2932;52.400;9.558;2023-08-06T11:18:35;1.88;;;1.67;;
5811;SDS011;2932;52.400;9.558;2023-08-06T11:21:00;1.73;;;1.30;;
5811;SDS011;2932;52.400;9.558;2023-08-06T11:23:27;2.00;;;1.48;;
5811;SDS011;2932;52.400;9.558;2023-08-06T11:25:56;1.77;;;1.50;;
5811;SDS011;2932;52.400;9.558;2023-08-06T11:28:22;3.08;;;2.05;;
5811;SDS011;2932;52.400;9.558;2023-08-06T11:30:48;3.60;;;1.90;;
5811;SDS011;2932;52.400;9.558;2023-08-06T11:33:13;2.10;;;1.60;;
5811;SDS011;2932;52.400;9.558;2023-08-06T11:35:39;2.28;;;1.80;;
5811;SDS011;2932;52.400;9.558;2023-08-06T11:38:05;3.50;;;1.98;;
5811;SDS011;2932;52.400;9.558;2023-08-06T11:40:31;1.98;;;1.88;;
5811;SDS011;2932;52.400;9.558;2023-08-06T11:42:58;2.03;;;1.70;;
5811;SDS011;2932;52.400;9.558;2023-08-06T11:45:26;1.70;;;1.60;;
5811;SDS011;2932;52.400;9.558;2023-08-06T11:47:52;1.73;;;1.60;;
5811;SDS011;2932;52.400;9.558;2023-08-06T11:50:24;3.70;;;1.67;;
5811;SDS011;2932;52.400;9.558;2023-08-06T11:52:52;5.93;;;1.73;;
5811;SDS011;2932;52.400;9.558;2023-08-06T11:55:22;3.15;;;1.63;;
5811;SDS011;2932;52.400;9.558;2023-08-06T11:57:48;3.33;;;1.60;;
5811;SDS011;2932;52.400;9.558;2023-08-06T12:00:14;2.22;;;1.98;;
5811;SDS011;2932;52.400;9.558;2023-08-06T12:02:40;2.00;;;1.63;;
5811;SDS011;2932;52.400;9.558;2023-08-06T12:05:13;1.95;;;1.85;;
5811;SDS011;2932;52.400;9.558;2023-08-06T12:07:40;2.72;;;2.10;;
5811;SDS011;2932;52.400;9.558;2023-08-06T12:10:06;3.05;;;1.55;;
5811;SDS011;2932;52.400;9.558;2023-08-06T12:12:33;2.90;;;1.60;;
5811;SDS011;2932;52.400;9.558;2023-08-06T12:14:59;2.30;;;1.90;;
5811;SDS011;2932;52.400;9.558;2023-08-06T12:17:24;1.58;;;1.48;;
5811;SDS011;2932;52.400;9.558;2023-08-06T12:19:49;2.08;;;1.55;;
5811;SDS011;2932;52.400;9.558;2023-08-06T12:22:15;2.13;;;1.45;;
5811;SDS011;2932;52.400;9.558;2023-08-06T12:24:41;1.70;;;1.60;;
5811;SDS011;2932;52.400;9.558;2023-08-06T12:27:08;1.70;;;1.60;;
5811;SDS011;2932;52.400;9.558;2023-08-06T12:29:33;2.45;;;1.80;;
5811;SDS011;2932;52.400;9.558;2023-08-06T12:31:59;2.60;;;1.73;;
5811;SDS011;2932;52.400;9.558;2023-08-06T12:34:24;2.63;;;1.60;;
5811;SDS011;2932;52.400;9.558;2023-08-06T12:36:50;2.60;;;1.80;;
5811;SDS011;2932;52.400;9.558;2023-08-06T12:39:15;2.88;;;2.20;;
5811;SDS011;2932;52.400;9.558;2023-08-06T12:41:40;1.85;;;1.67;;
5811;SDS011;2932;52.400;9.558;2023-08-06T12:44:06;1.58;;;1.48;;
5811;SDS011;2932;52.400;9.558;2023-08-06T12:46:31;2.70;;;1.73;;
5811;SDS011;2932;52.400;9.558;2023-08-06T12:48:56;1.80;;;1.70;;
5811;SDS011;2932;52.400;9.558;2023-08-06T12:51:22;2.58;;;1.80;;
5811;SDS011;2932;52.400;9.558;2023-08-06T12:53:48;2.55;;;1.73;;
5811;SDS011;2932;52.400;9.558;2023-08-06T12:56:14;2.08;;;1.90;;
5811;SDS011;2932;52.400;9.558;2023-08-06T12:58:39;2.03;;;1.80;;
5811;SDS011;2932;52.400;9.558;2023-08-06T13:01:05;2.10;;;1.90;;
5811;SDS011;2932;52.400;9.558;2023-08-06T13:03:30;2.40;;;1.92;;
5811;SDS011;2932;52.400;9.558;2023-08-06T13:05:55;2.00;;;1.90;;
5811;SDS011;2932;52.400;9.558;2023-08-06T13:08:23;2.28;;;1.63;;
5811;SDS011;2932;52.400;9.558;2023-08-06T13:10:48;2.15;;;1.60;;
5811;SDS011;2932;52.400;9.558;2023-08-06T13:13:13;2.17;;;1.95;;
5811;SDS011;2932;52.400;9.558;2023-08-06T13:15:39;1.90;;;1.70;;
5811;SDS011;2932;52.400;9.558;2023-08-06T13:18:04;2.65;;;1.90;;
5811;SDS011;2932;52.400;9.558;2023-08-06T13:20:30;1.75;;;1.65;;
5811;SDS011;2932;52.400;9.558;2023-08-06T13:22:55;1.80;;;1.70;;
5811;SDS011;2932;52.400;9.558;2023-08-06T13:25:22;2.72;;;1.90;;
5811;SDS011;2932;52.400;9.558;2023-08-06T13:27:48;2.20;;;1.83;;
5811;SDS011;2932;52.400;9.558;2023-08-06T13:30:13;5.00;;;2.20;;
5811;SDS011;2932;52.400;9.558;2023-08-06T13:32:38;4.13;;;2.05;;
5811;SDS011;2932;52.400;9.558;2023-08-06T13:35:04;2.15;;;1.95;;
5811;SDS011;2932;52.400;9.558;2023-08-06T13:37:30;1.90;;;1.80;;
5811;SDS011;2932;52.400;9.558;2023-08-06T13:39:56;3.10;;;1.90;;
5811;SDS011;2932;52.400;9.558;2023-08-06T13:42:21;2.63;;;1.70;;
5811;SDS011;2932;52.400;9.558;2023-08-06T13:44:47;4.20;;;1.60;;
5811;SDS011;2932;52.400;9.558;2023-08-06T13:47:12;4.47;;;1.85;;
5811;SDS011;2932;52.400;9.558;2023-08-06T13:49:37;3.22;;;2.00;;
5811;SDS011;2932;52.400;9.558;2023-08-06T13:52:03;5.13;;;1.90;;
5811;SDS011;2932;52.400;9.558;2023-08-06T13:54:29;3.08;;;1.75;;
5811;SDS011;2932;52.400;9.558;2023-08-06T13:56:54;4.88;;;1.75;;
5811;SDS011;2932;52.400;9.558;2023-08-06T13:59:20;2.13;;;1.85;;
5811;SDS011;2932;52.400;9.558;2023-08-06T14:01:45;1.90;;;1.80;;
5811;SDS011;2932;52.400;9.558;2023-08-06T14:04:12;2.25;;;2.05;;
5811;SDS011;2932;52.400;9.558;2023-08-06T14:06:37;2.65;;;2.10;;
5811;SDS011;2932;52.400;9.558;2023-08-06T14:09:03;2.20;;;2.10;;
5811;SDS011;2932;52.400;9.558;2023-08-06T14:11:28;3.08;;;2.50;;
5811;SDS011;2932;52.400;9.558;2023-08-06T14:13:53;2.47;;;2.10;;
5811;SDS011;2932;52.400;9.558;2023-08-06T14:16:19;3.83;;;2.40;;
5811;SDS011;2932;52.400;9.558;2023-08-06T14:18:44;2.78;;;2.30;;
5811;SDS011;2932;52.400;9.558;2023-08-06T14:21:09;2.33;;;2.10;;
5811;SDS011;2932;52.400;9.558;2023-08-06T14:23:35;4.00;;;2.10;;
5811;SDS011;2932;52.400;9.558;2023-08-06T14:26:00;3.05;;;2.20;;
5811;SDS011;2932;52.400;9.558;2023-08-06T14:28:25;4.82;;;2.50;;
5811;SDS011;2932;52.400;9.558;2023-08-06T14:30:51;4.60;;;2.20;;
5811;SDS011;2932;52.400;9.558;2023-08-06T14:33:16;2.83;;;2.58;;
5811;SDS011;2932;52.400;9.558;2023-08-06T14:35:41;2.40;;;2.20;;
5811;SDS011;2932;52.400;9.558;2023-08-06T14:38:06;3.15;;;2.05;;
5811;SDS011;2932;52.400;9.558;2023-08-06T14:40:32;3.05;;;1.88;;
5811;SDS011;2932;52.400;9.558;2023-08-06T14:43:02;2.10;;;1.90;;
5811;SDS011;2932;52.400;9.558;2023-08-06T14:45:27;2.65;;;1.67;;
5811;SDS011;2932;52.400;9.558;2023-08-06T14:47:53;4.90;;;2.38;;
5811;SDS011;2932;52.400;9.558;2023-08-06T14:50:18;5.68;;;2.00;;
5811;SDS011;2932;52.400;9.558;2023-08-06T14:52:43;2.42;;;2.03;;
5811;SDS011;2932;52.400;9.558;2023-08-06T14:55:09;3.58;;;1.90;;
5811;SDS011;2932;52.400;9.558;2023-08-06T14:57:34;1.77;;;1.67;;
5811;SDS011;2932;52.400;9.558;2023-08-06T14:59:59;4.28;;;1.98;;
5811;SDS011;2932;52.400;9.558;2023-08-06T15:02:25;3.40;;;1.92;;
5811;SDS011;2932;52.400;9.558;2023-08-06T15:04:50;1.92;;;1.77;;
5811;SDS011;2932;52.400;9.558;2023-08-06T15:07:16;3.95;;;2.15;;
5811;SDS011;2932;52.400;9.558;2023-08-06T15:09:41;2.25;;;1.90;;
5811;SDS011;2932;52.400;9.558;2023-08-06T15:12:06;2.28;;;1.85;;
5811;SDS011;2932;52.400;9.558;2023-08-06T15:14:32;2.70;;;1.73;;
5811;SDS011;2932;52.400;9.558;2023-08-06T15:16:57;2.13;;;1.88;;
5811;SDS011;2932;52.400;9.558;2023-08-06T15:19:23;1.83;;;1.73;;